sensor_id;sensor_type;location;lat;lon;timestamp;pressure;altitude;pressure_sealevel;temperature;humidity
51287;BME280;37364;46.974;18.916;2022-11-18T00:00:10;152158.88;;;7.19;100.00
51287;BME280;37364;46.974;18.916;2022-11-18T00:02:43;152151.16;;;7.16;100.00
51287;BME280;37364;46.974;18.916;2022-11-18T00:05:14;152151.16;;;7.16;100.00
51287;BME280;37364;46.974;18.916;2022-11-18T00:07:44;152146.00;;;7.13;100.00
51287;BME280;37364;46.974;18.916;2022-11-18T00:10:15;152155.00;;;7.17;100.00
51287;BME280;37364;46.974;18.916;2022-11-18T00:12:45;152148.56;;;7.15;100.00
51287;BME280;37364;46.974;18.916;2022-11-18T00:15:29;152134.34;;;7.09;100.00
51287;BME280;37364;46.974;18.916;2022-11-18T00:18:02;152127.91;;;7.06;100.00
51287;BME280;37364;46.974;18.916;2022-11-18T00:20:33;152133.06;;;7.08;100.00
51287;BME280;37364;46.974;18.916;2022-11-18T00:23:03;152135.63;;;7.09;100.00
51287;BME280;37364;46.974;18.916;2022-11-18T00:25:33;152125.28;;;7.05;100.00
51287;BME280;37364;46.974;18.916;2022-11-18T00:28:06;152122.72;;;7.04;100.00
51287;BME280;37364;46.974;18.916;2022-11-18T00:30:36;152120.13;;;7.03;100.00
51287;BME280;37364;46.974;18.916;2022-11-18T00:33:09;152102.09;;;6.96;100.00
51287;BME280;37364;46.974;18.916;2022-11-18T00:35:39;152109.81;;;6.99;100.00
51287;BME280;37364;46.974;18.916;2022-11-18T00:38:09;152114.97;;;7.01;100.00
51287;BME280;37364;46.974;18.916;2022-11-18T00:40:39;152111.09;;;7.00;100.00
51287;BME280;37364;46.974;18.916;2022-11-18T00:43:09;152107.25;;;6.98;100.00
51287;BME280;37364;46.974;18.916;2022-11-18T00:45:37;152107.25;;;6.98;100.00
51287;BME280;37364;46.974;18.916;2022-11-18T00:48:10;152108.53;;;6.99;100.00
51287;BME280;37364;46.974;18.916;2022-11-18T00:50:40;152102.09;;;6.96;100.00
51287;BME280;37364;46.974;18.916;2022-11-18T00:53:10;152096.91;;;6.94;100.00
51287;BME280;37364;46.974;18.916;2022-11-18T00:55:40;152104.63;;;6.97;100.00
51287;BME280;37364;46.974;18.916;2022-11-18T00:58:11;152104.63;;;6.97;100.00
51287;BME280;37364;46.974;18.916;2022-11-18T01:00:41;152099.47;;;6.95;100.00
51287;BME280;37364;46.974;18.916;2022-11-18T01:03:15;152095.59;;;6.93;100.00
51287;BME280;37364;46.974;18.916;2022-11-18T01:05:45;152099.47;;;6.95;100.00
51287;BME280;37364;46.974;18.916;2022-11-18T01:08:16;152093.03;;;6.92;100.00
51287;BME280;37364;46.974;18.916;2022-11-18T01:10:47;152081.38;;;6.88;100.00
51287;BME280;37364;46.974;18.916;2022-11-18T01:13:19;152072.38;;;6.84;100.00
51287;BME280;37364;46.974;18.916;2022-11-18T01:15:49;152060.72;;;6.80;100.00
51287;BME280;37364;46.974;18.916;2022-11-18T01:18:24;152063.34;;;6.81;100.00
51287;BME280;37364;46.974;18.916;2022-11-18T01:20:59;152072.38;;;6.84;100.00
51287;BME280;37364;46.974;18.916;2022-11-18T01:23:29;152065.91;;;6.82;100.00
51287;BME280;37364;46.974;18.916;2022-11-18T01:26:04;152071.06;;;6.84;100.00
51287;BME280;37364;46.974;18.916;2022-11-18T01:28:34;152074.94;;;6.85;100.00
51287;BME280;37364;46.974;18.916;2022-11-18T01:31:06;152080.09;;;6.87;100.00
51287;BME280;37364;46.974;18.916;2022-11-18T01:33:40;152077.53;;;6.86;100.00
51287;BME280;37364;46.974;18.916;2022-11-18T01:36:17;152071.06;;;6.84;100.00
51287;BME280;37364;46.974;18.916;2022-11-18T01:38:48;152069.78;;;6.83;100.00
51287;BME280;37364;46.974;18.916;2022-11-18T01:41:20;152055.56;;;6.78;100.00
51287;BME280;37364;46.974;18.916;2022-11-18T01:43:54;152054.28;;;6.77;100.00
51287;BME280;37364;46.974;18.916;2022-11-18T01:46:26;152054.28;;;6.77;100.00
51287;BME280;37364;46.974;18.916;2022-11-18T01:49:02;152040.09;;;6.71;100.00
51287;BME280;37364;46.974;18.916;2022-11-18T01:51:39;152045.25;;;6.73;100.00
51287;BME280;37364;46.974;18.916;2022-11-18T01:54:15;152053.00;;;6.77;100.00
51287;BME280;37364;46.974;18.916;2022-11-18T01:56:50;152058.19;;;6.79;100.00
51287;BME280;37364;46.974;18.916;2022-11-18T01:59:25;152058.19;;;6.79;100.00
51287;BME280;37364;46.974;18.916;2022-11-18T02:01:56;152050.41;;;6.76;100.00
51287;BME280;37364;46.974;18.916;2022-11-18T02:04:30;152037.53;;;6.70;100.00
51287;BME280;37364;46.974;18.916;2022-11-18T02:07:02;152023.31;;;6.65;100.00
51287;BME280;37364;46.974;18.916;2022-11-18T02:09:32;151993.63;;;6.53;100.00
51287;BME280;37364;46.974;18.916;2022-11-18T02:12:03;151996.19;;;6.54;100.00
51287;BME280;37364;46.974;18.916;2022-11-18T02:14:36;151997.47;;;6.54;100.00
51287;BME280;37364;46.974;18.916;2022-11-18T02:17:08;152003.94;;;6.57;100.00
51287;BME280;37364;46.974;18.916;2022-11-18T02:25:49;152027.16;;;6.66;100.00
51287;BME280;37364;46.974;18.916;2022-11-18T02:28:35;152028.47;;;6.67;100.00
51287;BME280;37364;46.974;18.916;2022-11-18T02:31:14;152011.66;;;6.60;100.00
51287;BME280;37364;46.974;18.916;2022-11-18T02:33:48;152011.66;;;6.60;100.00
51287;BME280;37364;46.974;18.916;2022-11-18T02:36:25;152010.41;;;6.60;100.00
51287;BME280;37364;46.974;18.916;2022-11-18T02:39:03;152003.94;;;6.57;100.00
51287;BME280;37364;46.974;18.916;2022-11-18T02:41:35;152009.13;;;6.59;100.00
51287;BME280;37364;46.974;18.916;2022-11-18T02:44:12;152024.59;;;6.65;100.00
51287;BME280;37364;46.974;18.916;2022-11-18T02:46:50;152028.47;;;6.67;100.00
51287;BME280;37364;46.974;18.916;2022-11-18T02:49:24;152011.66;;;6.60;100.00
51287;BME280;37364;46.974;18.916;2022-11-18T02:51:57;152005.22;;;6.58;100.00
51287;BME280;37364;46.974;18.916;2022-11-18T02:54:28;152019.44;;;6.63;100.00
51287;BME280;37364;46.974;18.916;2022-11-18T02:56:59;152031.03;;;6.68;100.00
51287;BME280;37364;46.974;18.916;2022-11-18T02:59:30;152037.53;;;6.70;100.00
51287;BME280;37364;46.974;18.916;2022-11-18T03:02:03;152033.66;;;6.69;100.00
51287;BME280;37364;46.974;18.916;2022-11-18T03:04:33;152022.00;;;6.64;100.00
51287;BME280;37364;46.974;18.916;2022-11-18T03:07:10;152019.44;;;6.63;100.00
51287;BME280;37364;46.974;18.916;2022-11-18T03:09:44;152015.56;;;6.62;100.00
51287;BME280;37364;46.974;18.916;2022-11-18T03:12:21;152024.59;;;6.65;100.00
51287;BME280;37364;46.974;18.916;2022-11-18T03:15:01;152019.44;;;6.63;100.00
51287;BME280;37364;46.974;18.916;2022-11-18T03:17:44;152016.84;;;6.62;100.00
51287;BME280;37364;46.974;18.916;2022-11-18T03:20:20;152025.88;;;6.66;100.00
51287;BME280;37364;46.974;18.916;2022-11-18T03:22:54;152031.03;;;6.68;100.00
51287;BME280;37364;46.974;18.916;2022-11-18T03:25:32;152040.09;;;6.71;100.00
51287;BME280;37364;46.974;18.916;2022-11-18T03:28:10;152047.84;;;6.75;100.00
51287;BME280;37364;46.974;18.916;2022-11-18T03:30:49;152050.41;;;6.76;100.00
51287;BME280;37364;46.974;18.916;2022-11-18T03:33:31;152050.41;;;6.76;100.00
51287;BME280;37364;46.974;18.916;2022-11-18T03:36:06;152046.53;;;6.74;100.00
51287;BME280;37364;46.974;18.916;2022-11-18T03:38:44;152043.97;;;6.73;100.00
51287;BME280;37364;46.974;18.916;2022-11-18T03:41:17;152046.53;;;6.74;100.00
51287;BME280;37364;46.974;18.916;2022-11-18T03:43:54;152064.63;;;6.81;100.00
51287;BME280;37364;46.974;18.916;2022-11-18T03:46:29;152062.06;;;6.80;100.00
51287;BME280;37364;46.974;18.916;2022-11-18T03:49:06;152058.19;;;6.79;100.00
51287;BME280;37364;46.974;18.916;2022-11-18T03:51:43;152058.19;;;6.79;100.00
51287;BME280;37364;46.974;18.916;2022-11-18T03:54:19;152065.91;;;6.82;100.00
51287;BME280;37364;46.974;18.916;2022-11-18T03:56:54;152059.44;;;6.79;100.00
51287;BME280;37364;46.974;18.916;2022-11-18T03:59:30;152065.91;;;6.82;100.00
51287;BME280;37364;46.974;18.916;2022-11-18T04:02:05;152071.06;;;6.84;100.00
51287;BME280;37364;46.974;18.916;2022-11-18T04:04:46;152058.19;;;6.79;100.00
51287;BME280;37364;46.974;18.916;2022-11-18T04:07:21;152068.50;;;6.83;100.00
51287;BME280;37364;46.974;18.916;2022-11-18T04:09:56;152067.22;;;6.82;100.00
51287;BME280;37364;46.974;18.916;2022-11-18T04:12:30;152069.78;;;6.83;100.00
51287;BME280;37364;46.974;18.916;2022-11-18T04:15:03;152060.72;;;6.80;100.00
51287;BME280;37364;46.974;18.916;2022-11-18T04:17:33;152071.06;;;6.84;100.00
51287;BME280;37364;46.974;18.916;2022-11-18T04:20:10;152063.34;;;6.81;100.00
51287;BME280;37364;46.974;18.916;2022-11-18T04:22:42;152059.44;;;6.79;100.00
51287;BME280;37364;46.974;18.916;2022-11-18T04:25:13;152051.69;;;6.76;100.00
51287;BME280;37364;46.974;18.916;2022-11-18T04:27:43;152051.69;;;6.76;100.00
51287;BME280;37364;46.974;18.916;2022-11-18T04:30:13;152047.84;;;6.75;100.00
51287;BME280;37364;46.974;18.916;2022-11-18T04:32:43;152068.50;;;6.83;100.00
51287;BME280;37364;46.974;18.916;2022-11-18T04:35:16;152067.22;;;6.82;100.00
51287;BME280;37364;46.974;18.916;2022-11-18T04:37:47;152065.91;;;6.82;100.00
51287;BME280;37364;46.974;18.916;2022-11-18T04:40:17;152067.22;;;6.82;100.00
51287;BME280;37364;46.974;18.916;2022-11-18T04:42:48;152064.63;;;6.81;100.00
51287;BME280;37364;46.974;18.916;2022-11-18T04:45:18;152068.50;;;6.83;100.00
51287;BME280;37364;46.974;18.916;2022-11-18T04:47:49;152072.38;;;6.84;100.00
51287;BME280;37364;46.974;18.916;2022-11-18T04:50:21;152084.00;;;6.89;100.00
51287;BME280;37364;46.974;18.916;2022-11-18T04:52:51;152078.81;;;6.87;100.00
51287;BME280;37364;46.974;18.916;2022-11-18T04:55:24;152072.38;;;6.84;100.00
51287;BME280;37364;46.974;18.916;2022-11-18T04:58:03;152076.22;;;6.86;100.00
51287;BME280;37364;46.974;18.916;2022-11-18T05:00:33;152080.09;;;6.87;100.00
51287;BME280;37364;46.974;18.916;2022-11-18T05:03:04;152082.72;;;6.88;100.00
51287;BME280;37364;46.974;18.916;2022-11-18T05:05:37;152077.53;;;6.86;100.00
51287;BME280;37364;46.974;18.916;2022-11-18T05:08:07;152078.81;;;6.87;100.00
51287;BME280;37364;46.974;18.916;2022-11-18T05:10:37;152082.72;;;6.88;100.00
51287;BME280;37364;46.974;18.916;2022-11-18T05:13:07;152084.00;;;6.89;100.00
51287;BME280;37364;46.974;18.916;2022-11-18T05:15:35;152080.09;;;6.87;100.00
51287;BME280;37364;46.974;18.916;2022-11-18T05:18:05;152087.88;;;6.90;100.00
51287;BME280;37364;46.974;18.916;2022-11-18T05:20:41;152086.59;;;6.90;100.00
51287;BME280;37364;46.974;18.916;2022-11-18T05:23:11;152093.03;;;6.92;100.00
51287;BME280;37364;46.974;18.916;2022-11-18T05:25:41;152094.31;;;6.93;100.00
51287;BME280;37364;46.974;18.916;2022-11-18T05:28:12;152091.75;;;6.92;100.00
51287;BME280;37364;46.974;18.916;2022-11-18T05:30:42;152086.59;;;6.90;100.00
51287;BME280;37364;46.974;18.916;2022-11-18T05:33:12;152081.38;;;6.88;100.00
51287;BME280;37364;46.974;18.916;2022-11-18T05:35:45;152082.72;;;6.88;100.00
51287;BME280;37364;46.974;18.916;2022-11-18T05:38:20;152090.44;;;6.91;100.00
51287;BME280;37364;46.974;18.916;2022-11-18T05:40:51;152071.06;;;6.84;100.00
51287;BME280;37364;46.974;18.916;2022-11-18T05:43:21;152071.06;;;6.84;100.00
51287;BME280;37364;46.974;18.916;2022-11-18T05:45:52;152056.84;;;6.78;100.00
51287;BME280;37364;46.974;18.916;2022-11-18T05:48:23;152062.06;;;6.80;100.00
51287;BME280;37364;46.974;18.916;2022-11-18T05:50:56;152067.22;;;6.82;100.00
51287;BME280;37364;46.974;18.916;2022-11-18T05:53:26;152053.00;;;6.77;100.00
51287;BME280;37364;46.974;18.916;2022-11-18T05:56:00;152041.38;;;6.72;100.00
51287;BME280;37364;46.974;18.916;2022-11-18T05:58:34;152032.38;;;6.68;100.00
51287;BME280;37364;46.974;18.916;2022-11-18T06:01:06;152033.66;;;6.69;100.00
51287;BME280;37364;46.974;18.916;2022-11-18T06:03:38;152034.91;;;6.69;100.00
51287;BME280;37364;46.974;18.916;2022-11-18T06:06:14;152023.31;;;6.65;100.00
51287;BME280;37364;46.974;18.916;2022-11-18T06:08:49;152020.72;;;6.64;100.00
51287;BME280;37364;46.974;18.916;2022-11-18T06:11:22;152016.84;;;6.62;100.00
51287;BME280;37364;46.974;18.916;2022-11-18T06:13:55;152016.84;;;6.62;100.00
51287;BME280;37364;46.974;18.916;2022-11-18T06:16:29;152024.59;;;6.65;100.00
51287;BME280;37364;46.974;18.916;2022-11-18T06:19:07;152016.84;;;6.62;100.00
51287;BME280;37364;46.974;18.916;2022-11-18T06:21:40;152022.00;;;6.64;100.00
51287;BME280;37364;46.974;18.916;2022-11-18T06:24:12;152028.47;;;6.67;100.00
51287;BME280;37364;46.974;18.916;2022-11-18T06:26:42;152022.00;;;6.64;100.00
51287;BME280;37364;46.974;18.916;2022-11-18T06:29:15;152029.75;;;6.67;100.00
51287;BME280;37364;46.974;18.916;2022-11-18T06:31:53;152042.69;;;6.72;100.00
51287;BME280;37364;46.974;18.916;2022-11-18T06:34:23;152027.16;;;6.66;100.00
51287;BME280;37364;46.974;18.916;2022-11-18T06:36:56;152040.09;;;6.71;100.00
51287;BME280;37364;46.974;18.916;2022-11-18T06:39:26;152036.19;;;6.70;100.00
51287;BME280;37364;46.974;18.916;2022-11-18T06:41:56;152050.41;;;6.76;100.00
51287;BME280;37364;46.974;18.916;2022-11-18T06:44:26;152058.19;;;6.79;100.00
51287;BME280;37364;46.974;18.916;2022-11-18T06:46:54;152063.34;;;6.81;100.00
51287;BME280;37364;46.974;18.916;2022-11-18T06:49:25;152078.81;;;6.87;100.00
51287;BME280;37364;46.974;18.916;2022-11-18T06:51:58;152090.44;;;6.91;100.00
51287;BME280;37364;46.974;18.916;2022-11-18T06:54:29;152078.81;;;6.87;100.00
51287;BME280;37364;46.974;18.916;2022-11-18T06:56:59;152072.38;;;6.84;100.00
51287;BME280;37364;46.974;18.916;2022-11-18T06:59:29;152076.22;;;6.86;100.00
51287;BME280;37364;46.974;18.916;2022-11-18T07:01:59;152076.22;;;6.86;100.00
51287;BME280;37364;46.974;18.916;2022-11-18T07:04:29;152086.59;;;6.90;100.00
51287;BME280;37364;46.974;18.916;2022-11-18T07:07:03;152072.38;;;6.84;100.00
51287;BME280;37364;46.974;18.916;2022-11-18T07:09:33;152081.38;;;6.88;100.00
51287;BME280;37364;46.974;18.916;2022-11-18T07:12:04;152094.31;;;6.93;100.00
51287;BME280;37364;46.974;18.916;2022-11-18T07:14:34;152102.09;;;6.96;100.00
51287;BME280;37364;46.974;18.916;2022-11-18T07:17:04;152102.09;;;6.96;100.00
51287;BME280;37364;46.974;18.916;2022-11-18T07:19:34;152103.38;;;6.97;100.00
51287;BME280;37364;46.974;18.916;2022-11-18T07:22:07;152133.06;;;7.08;100.00
51287;BME280;37364;46.974;18.916;2022-11-18T07:24:37;152136.94;;;7.10;100.00
51287;BME280;37364;46.974;18.916;2022-11-18T07:27:07;152138.22;;;7.10;100.00
51287;BME280;37364;46.974;18.916;2022-11-18T07:29:37;152130.47;;;7.07;100.00
51287;BME280;37364;46.974;18.916;2022-11-18T07:32:07;152130.47;;;7.07;100.00
51287;BME280;37364;46.974;18.916;2022-11-18T07:34:38;152130.47;;;7.07;100.00
51287;BME280;37364;46.974;18.916;2022-11-18T07:37:13;152146.00;;;7.13;100.00
51287;BME280;37364;46.974;18.916;2022-11-18T07:39:43;152139.50;;;7.11;100.00
51287;BME280;37364;46.974;18.916;2022-11-18T07:42:14;152151.16;;;7.16;100.00
51287;BME280;37364;46.974;18.916;2022-11-18T07:44:44;152136.94;;;7.10;100.00
51287;BME280;37364;46.974;18.916;2022-11-18T07:47:14;152146.00;;;7.13;100.00
51287;BME280;37364;46.974;18.916;2022-11-18T07:49:44;152135.63;;;7.09;100.00
51287;BME280;37364;46.974;18.916;2022-11-18T07:52:17;152138.22;;;7.10;100.00
51287;BME280;37364;46.974;18.916;2022-11-18T07:54:47;152149.84;;;7.15;100.00
51287;BME280;37364;46.974;18.916;2022-11-18T07:57:17;152127.91;;;7.06;100.00
51287;BME280;37364;46.974;18.916;2022-11-18T07:59:47;152143.38;;;7.12;100.00
51287;BME280;37364;46.974;18.916;2022-11-18T08:02:17;152143.38;;;7.12;100.00
51287;BME280;37364;46.974;18.916;2022-11-18T08:04:47;152156.31;;;7.18;100.00
51287;BME280;37364;46.974;18.916;2022-11-18T08:07:20;152153.72;;;7.17;100.00
51287;BME280;37364;46.974;18.916;2022-11-18T08:09:50;152169.22;;;7.23;100.00
51287;BME280;37364;46.974;18.916;2022-11-18T08:12:20;152164.03;;;7.21;100.00
51287;BME280;37364;46.974;18.916;2022-11-18T08:14:50;152152.44;;;7.16;100.00
51287;BME280;37364;46.974;18.916;2022-11-18T08:17:20;152161.50;;;7.20;100.00
51287;BME280;37364;46.974;18.916;2022-11-18T08:19:50;152169.22;;;7.23;100.00
51287;BME280;37364;46.974;18.916;2022-11-18T08:22:23;152179.53;;;7.27;100.00
51287;BME280;37364;46.974;18.916;2022-11-18T08:24:53;152165.31;;;7.21;100.00
51287;BME280;37364;46.974;18.916;2022-11-18T08:27:24;152162.75;;;7.20;100.00
51287;BME280;37364;46.974;18.916;2022-11-18T08:29:54;152157.59;;;7.18;100.00
51287;BME280;37364;46.974;18.916;2022-11-18T08:32:24;152146.00;;;7.13;100.00
51287;BME280;37364;46.974;18.916;2022-11-18T08:34:54;152164.03;;;7.21;100.00
51287;BME280;37364;46.974;18.916;2022-11-18T08:37:27;152158.88;;;7.19;100.00
51287;BME280;37364;46.974;18.916;2022-11-18T08:39:57;152143.38;;;7.12;100.00
51287;BME280;37364;46.974;18.916;2022-11-18T08:42:27;152156.31;;;7.18;100.00
51287;BME280;37364;46.974;18.916;2022-11-18T08:45:00;152173.09;;;7.24;100.00
51287;BME280;37364;46.974;18.916;2022-11-18T08:47:32;152174.38;;;7.25;100.00
51287;BME280;37364;46.974;18.916;2022-11-18T08:50:02;152189.88;;;7.31;100.00
51287;BME280;37364;46.974;18.916;2022-11-18T08:52:37;152186.03;;;7.29;100.00
51287;BME280;37364;46.974;18.916;2022-11-18T08:55:09;152184.69;;;7.29;100.00
51287;BME280;37364;46.974;18.916;2022-11-18T08:57:39;152189.88;;;7.31;100.00
51287;BME280;37364;46.974;18.916;2022-11-18T09:00:11;152195.03;;;7.33;100.00
51287;BME280;37364;46.974;18.916;2022-11-18T09:02:41;152196.34;;;7.33;100.00
51287;BME280;37364;46.974;18.916;2022-11-18T09:05:12;152193.75;;;7.32;100.00
51287;BME280;37364;46.974;18.916;2022-11-18T09:07:45;152204.06;;;7.37;100.00
51287;BME280;37364;46.974;18.916;2022-11-18T09:10:15;152195.03;;;7.33;100.00
51287;BME280;37364;46.974;18.916;2022-11-18T09:12:46;152202.81;;;7.36;100.00
51287;BME280;37364;46.974;18.916;2022-11-18T09:15:17;152222.19;;;7.44;100.00
51287;BME280;37364;46.974;18.916;2022-11-18T09:17:52;152214.41;;;7.41;100.00
51287;BME280;37364;46.974;18.916;2022-11-18T09:20:22;152218.28;;;7.42;100.00
51287;BME280;37364;46.974;18.916;2022-11-18T09:22:55;152228.63;;;7.46;100.00
51287;BME280;37364;46.974;18.916;2022-11-18T09:25:25;152229.94;;;7.47;100.00
51287;BME280;37364;46.974;18.916;2022-11-18T09:27:55;152250.63;;;7.55;100.00
51287;BME280;37364;46.974;18.916;2022-11-18T09:30:26;152253.16;;;7.56;100.00
51287;BME280;37364;46.974;18.916;2022-11-18T09:32:56;152282.88;;;7.68;100.00
51287;BME280;37364;46.974;18.916;2022-11-18T09:35:27;152288.06;;;7.70;100.00
51287;BME280;37364;46.974;18.916;2022-11-18T09:38:00;152297.09;;;7.73;100.00
51287;BME280;37364;46.974;18.916;2022-11-18T09:40:31;152270.00;;;7.63;100.00
51287;BME280;37364;46.974;18.916;2022-11-18T09:43:09;152263.50;;;7.60;100.00
51287;BME280;37364;46.974;18.916;2022-11-18T09:45:45;152245.44;;;7.53;100.00
51287;BME280;37364;46.974;18.916;2022-11-18T09:48:19;152233.78;;;7.48;100.00
51287;BME280;37364;46.974;18.916;2022-11-18T09:51:11;152231.22;;;7.47;100.00
51287;BME280;37364;46.974;18.916;2022-11-18T09:53:44;152238.94;;;7.50;100.00
51287;BME280;37364;46.974;18.916;2022-11-18T09:56:15;152219.56;;;7.43;100.00
51287;BME280;37364;46.974;18.916;2022-11-18T09:58:46;152233.78;;;7.48;100.00
51287;BME280;37364;46.974;18.916;2022-11-18T10:01:18;152210.56;;;7.39;100.00
51287;BME280;37364;46.974;18.916;2022-11-18T10:03:53;152217.00;;;7.42;100.00
51287;BME280;37364;46.974;18.916;2022-11-18T10:06:25;152192.47;;;7.32;100.00
51287;BME280;37364;46.974;18.916;2022-11-18T10:09:07;152174.38;;;7.25;100.00
51287;BME280;37364;46.974;18.916;2022-11-18T10:11:44;152184.69;;;7.29;100.00
51287;BME280;37364;46.974;18.916;2022-11-18T10:14:25;152202.81;;;7.36;100.00
51287;BME280;37364;46.974;18.916;2022-11-18T10:17:08;152204.06;;;7.37;100.00
51287;BME280;37364;46.974;18.916;2022-11-18T10:19:45;152237.69;;;7.50;100.00
51287;BME280;37364;46.974;18.916;2022-11-18T10:22:20;152211.84;;;7.40;100.00
51287;BME280;37364;46.974;18.916;2022-11-18T10:24:57;152209.25;;;7.39;100.00
51287;BME280;37364;46.974;18.916;2022-11-18T10:27:34;152223.47;;;7.44;100.00
51287;BME280;37364;46.974;18.916;2022-11-18T10:30:11;152232.50;;;7.48;100.00
51287;BME280;37364;46.974;18.916;2022-11-18T10:32:53;152238.94;;;7.50;100.00
51287;BME280;37364;46.974;18.916;2022-11-18T10:35:26;152242.84;;;7.52;100.00
51287;BME280;37364;46.974;18.916;2022-11-18T10:38:02;152267.38;;;7.62;100.00
51287;BME280;37364;46.974;18.916;2022-11-18T10:40:43;152279.03;;;7.66;100.00
51287;BME280;37364;46.974;18.916;2022-11-18T10:43:46;152268.66;;;7.62;100.00
51287;BME280;37364;46.974;18.916;2022-11-18T10:46:23;152270.00;;;7.63;100.00
51287;BME280;37364;46.974;18.916;2022-11-18T10:49:12;152273.84;;;7.64;100.00
51287;BME280;37364;46.974;18.916;2022-11-18T10:51:44;152272.56;;;7.64;100.00
51287;BME280;37364;46.974;18.916;2022-11-18T10:54:18;152266.09;;;7.61;100.00
51287;BME280;37364;46.974;18.916;2022-11-18T10:56:56;152257.06;;;7.58;100.00
51287;BME280;37364;46.974;18.916;2022-11-18T10:59:32;152270.00;;;7.63;100.00
51287;BME280;37364;46.974;18.916;2022-11-18T11:02:15;152259.66;;;7.59;100.00
51287;BME280;37364;46.974;18.916;2022-11-18T11:04:46;152245.44;;;7.53;100.00
51287;BME280;37364;46.974;18.916;2022-11-18T11:07:24;152248.00;;;7.54;100.00
51287;BME280;37364;46.974;18.916;2022-11-18T11:09:59;152259.66;;;7.59;100.00
51287;BME280;37364;46.974;18.916;2022-11-18T11:12:34;152275.16;;;7.65;100.00
51287;BME280;37364;46.974;18.916;2022-11-18T11:15:09;152263.50;;;7.60;100.00
51287;BME280;37364;46.974;18.916;2022-11-18T11:17:47;152271.28;;;7.63;100.00
51287;BME280;37364;46.974;18.916;2022-11-18T11:20:40;152286.78;;;7.69;100.00
51287;BME280;37364;46.974;18.916;2022-11-18T11:23:12;152280.31;;;7.67;100.00
51287;BME280;37364;46.974;18.916;2022-11-18T11:25:55;152295.81;;;7.73;100.00
51287;BME280;37364;46.974;18.916;2022-11-18T11:28:57;152279.03;;;7.66;100.00
51287;BME280;37364;46.974;18.916;2022-11-18T11:31:36;152267.38;;;7.62;100.00
51287;BME280;37364;46.974;18.916;2022-11-18T11:34:14;152263.50;;;7.60;100.00
51287;BME280;37364;46.974;18.916;2022-11-18T11:36:49;152263.50;;;7.60;100.00
51287;BME280;37364;46.974;18.916;2022-11-18T11:39:46;152267.38;;;7.62;100.00
51287;BME280;37364;46.974;18.916;2022-11-18T11:42:31;152253.16;;;7.56;100.00
51287;BME280;37364;46.974;18.916;2022-11-18T11:45:15;152270.00;;;7.63;100.00
51287;BME280;37364;46.974;18.916;2022-11-18T11:48:04;152266.09;;;7.61;100.00
51287;BME280;37364;46.974;18.916;2022-11-18T11:50:44;152273.84;;;7.64;100.00
51287;BME280;37364;46.974;18.916;2022-11-18T11:53:56;152244.13;;;7.52;100.00
51287;BME280;37364;46.974;18.916;2022-11-18T11:56:33;152257.06;;;7.58;100.00
51287;BME280;37364;46.974;18.916;2022-11-18T11:59:16;152259.66;;;7.59;100.00
51287;BME280;37364;46.974;18.916;2022-11-18T12:02:24;152258.34;;;7.58;100.00
51287;BME280;37364;46.974;18.916;2022-11-18T12:05:02;152229.94;;;7.47;100.00
51287;BME280;37364;46.974;18.916;2022-11-18T12:07:43;152257.06;;;7.58;100.00
51287;BME280;37364;46.974;18.916;2022-11-18T12:10:39;152246.72;;;7.53;100.00
51287;BME280;37364;46.974;18.916;2022-11-18T12:13:25;152246.72;;;7.53;100.00
51287;BME280;37364;46.974;18.916;2022-11-18T12:16:10;152223.47;;;7.44;100.00
51287;BME280;37364;46.974;18.916;2022-11-18T12:18:48;152222.19;;;7.44;100.00
51287;BME280;37364;46.974;18.916;2022-11-18T12:21:50;152232.50;;;7.48;100.00
51287;BME280;37364;46.974;18.916;2022-11-18T12:24:33;152227.34;;;7.46;100.00
51287;BME280;37364;46.974;18.916;2022-11-18T12:27:09;152220.91;;;7.43;100.00
51287;BME280;37364;46.974;18.916;2022-11-18T12:29:52;152214.41;;;7.41;100.00
51287;BME280;37364;46.974;18.916;2022-11-18T12:32:30;152213.13;;;7.40;100.00
51287;BME280;37364;46.974;18.916;2022-11-18T12:35:24;152227.34;;;7.46;100.00
51287;BME280;37364;46.974;18.916;2022-11-18T12:38:02;152240.28;;;7.51;100.00
51287;BME280;37364;46.974;18.916;2022-11-18T12:40:42;152215.75;;;7.41;100.00
51287;BME280;37364;46.974;18.916;2022-11-18T12:46:46;152226.06;;;7.45;100.00
51287;BME280;37364;46.974;18.916;2022-11-18T12:52:04;152219.56;;;7.43;100.00
51287;BME280;37364;46.974;18.916;2022-11-18T12:54:36;152238.94;;;7.50;100.00
51287;BME280;37364;46.974;18.916;2022-11-18T12:57:14;152228.63;;;7.46;100.00
51287;BME280;37364;46.974;18.916;2022-11-18T12:59:46;152227.34;;;7.46;100.00
51287;BME280;37364;46.974;18.916;2022-11-18T13:02:22;152205.41;;;7.37;100.00
51287;BME280;37364;46.974;18.916;2022-11-18T13:05:06;152209.25;;;7.39;100.00
51287;BME280;37364;46.974;18.916;2022-11-18T13:07:44;152213.13;;;7.40;100.00
51287;BME280;37364;46.974;18.916;2022-11-18T13:10:30;152217.00;;;7.42;100.00
51287;BME280;37364;46.974;18.916;2022-11-18T13:13:01;152218.28;;;7.42;100.00
51287;BME280;37364;46.974;18.916;2022-11-18T13:15:32;152219.56;;;7.43;100.00
51287;BME280;37364;46.974;18.916;2022-11-18T13:18:16;152228.63;;;7.46;100.00
51287;BME280;37364;46.974;18.916;2022-11-18T13:20:54;152238.94;;;7.50;100.00
51287;BME280;37364;46.974;18.916;2022-11-18T13:23:30;152249.28;;;7.55;100.00
51287;BME280;37364;46.974;18.916;2022-11-18T13:26:19;152238.94;;;7.50;100.00
51287;BME280;37364;46.974;18.916;2022-11-18T13:29:05;152224.78;;;7.45;100.00